createdAt,value
2023-03-29T00:00:31.366Z,2.63
2023-03-29T00:02:59.360Z,3.00
2023-03-29T00:05:27.316Z,2.35
2023-03-29T00:08:01.685Z,2.20
2023-03-29T00:10:32.133Z,2.70
2023-03-29T00:13:00.147Z,2.90
2023-03-29T00:15:28.040Z,2.35
2023-03-29T00:17:55.789Z,2.63
2023-03-29T00:20:23.579Z,2.53
2023-03-29T00:22:51.263Z,2.60
2023-03-29T00:25:19.196Z,2.50
2023-03-29T00:27:48.236Z,2.45
2023-03-29T00:30:16.435Z,2.97
2023-03-29T00:32:44.667Z,2.80
2023-03-29T00:35:12.970Z,2.25
2023-03-29T00:37:41.268Z,2.22
2023-03-29T00:40:12.707Z,2.17
2023-03-29T00:42:40.568Z,2.53
2023-03-29T00:45:18.859Z,2.72
2023-03-29T00:47:49.667Z,2.47
2023-03-29T00:50:22.371Z,2.50
2023-03-29T00:52:55.861Z,2.53
2023-03-29T00:55:26.532Z,2.90
2023-03-29T00:57:56.884Z,3.33
2023-03-29T01:00:31.826Z,2.85
2023-03-29T01:03:02.612Z,2.70
2023-03-29T01:05:33.450Z,3.05
2023-03-29T01:08:06.645Z,3.10
2023-03-29T01:10:41.072Z,2.42
2023-03-29T01:13:12.426Z,3.25
2023-03-29T01:15:45.042Z,2.80
2023-03-29T01:18:13.970Z,3.00
2023-03-29T01:20:52.400Z,3.00
2023-03-29T01:23:41.017Z,2.90
2023-03-29T01:26:18.202Z,3.25
2023-03-29T01:28:52.641Z,2.92
2023-03-29T01:31:25.565Z,2.90
2023-03-29T01:33:59.808Z,3.20
2023-03-29T01:36:34.969Z,3.22
2023-03-29T01:39:07.268Z,3.30
2023-03-29T01:41:45.152Z,3.20
2023-03-29T01:44:19.605Z,3.35
2023-03-29T01:46:48.870Z,3.08
2023-03-29T01:49:24.714Z,2.92
2023-03-29T01:51:56.162Z,3.15
2023-03-29T01:54:29.170Z,3.10
2023-03-29T01:56:59.325Z,3.22
2023-03-29T01:59:32.248Z,2.75
2023-03-29T02:02:03.316Z,3.28
2023-03-29T02:04:35.051Z,2.97
2023-03-29T02:07:06.014Z,3.13
2023-03-29T02:09:37.162Z,3.72
2023-03-29T02:12:07.994Z,3.15
2023-03-29T02:14:38.240Z,3.65
2023-03-29T02:17:18.202Z,3.33
2023-03-29T02:19:50.212Z,3.72
2023-03-29T02:22:26.437Z,3.70
2023-03-29T02:24:59.091Z,3.35
2023-03-29T02:27:28.924Z,2.80
2023-03-29T02:29:58.124Z,4.05
2023-03-29T02:32:32.131Z,3.22
2023-03-29T02:35:04.487Z,3.47
2023-03-29T02:37:36.330Z,3.58
2023-03-29T02:40:12.455Z,2.97
2023-03-29T02:45:14.093Z,3.15
2023-03-29T02:47:46.192Z,2.40
2023-03-29T02:50:14.261Z,2.90
2023-03-29T02:52:47.059Z,2.90
2023-03-29T02:55:18.659Z,2.78
2023-03-29T02:57:46.590Z,3.13
2023-03-29T03:00:20.014Z,2.78
2023-03-29T03:02:50.814Z,3.05
2023-03-29T03:05:19.482Z,2.80
2023-03-29T03:07:47.410Z,2.88
2023-03-29T03:10:15.897Z,3.10
2023-03-29T03:12:43.690Z,3.03
2023-03-29T03:15:12.023Z,2.47
2023-03-29T03:17:42.223Z,2.70
2023-03-29T03:20:13.707Z,2.65
2023-03-29T03:22:45.537Z,2.70
2023-03-29T03:25:13.377Z,2.50
2023-03-29T03:27:41.278Z,2.60
2023-03-29T03:30:10.940Z,2.72
2023-03-29T03:32:51.969Z,2.92
2023-03-29T03:35:42.932Z,3.10
2023-03-29T03:38:10.804Z,2.80
2023-03-29T03:40:38.559Z,2.72
2023-03-29T03:43:06.759Z,2.60
2023-03-29T03:45:34.857Z,2.83
2023-03-29T03:48:12.378Z,2.42
2023-03-29T03:50:50.397Z,2.58
2023-03-29T03:53:18.938Z,2.22
2023-03-29T03:56:08.986Z,3.40
2023-03-29T03:58:47.545Z,3.13
2023-03-29T04:01:17.003Z,3.35
2023-03-29T04:03:55.429Z,2.65
2023-03-29T04:06:25.353Z,2.20
2023-03-29T04:09:22.744Z,2.60
2023-03-29T04:12:01.447Z,2.75
2023-03-29T04:14:31.645Z,2.80
2023-03-29T04:17:06.439Z,2.30
2023-03-29T04:19:56.359Z,2.88
2023-03-29T04:22:25.234Z,2.90
2023-03-29T04:24:53.149Z,3.00
2023-03-29T04:27:39.938Z,2.53
2023-03-29T04:30:18.817Z,2.75
2023-03-29T04:33:09.546Z,3.00
2023-03-29T04:35:40.974Z,2.60
2023-03-29T04:38:12.835Z,2.78
2023-03-29T04:40:42.034Z,3.00
2023-03-29T04:43:14.412Z,2.90
2023-03-29T04:48:36.606Z,2.80
2023-03-29T04:51:07.213Z,3.10
2023-03-29T04:53:35.231Z,4.13
2023-03-29T04:56:03.057Z,3.00
2023-03-29T04:58:53.625Z,3.28
2023-03-29T05:01:22.350Z,3.05
2023-03-29T05:03:57.770Z,3.15
2023-03-29T05:06:33.291Z,2.90
2023-03-29T05:09:01.208Z,2.47
2023-03-29T05:11:34.184Z,3.22
2023-03-29T05:14:03.359Z,3.83
2023-03-29T05:16:35.648Z,3.28
2023-03-29T05:19:03.569Z,2.95
2023-03-29T05:21:35.301Z,3.10
2023-03-29T05:24:07.429Z,2.92
2023-03-29T05:26:58.719Z,3.00
2023-03-29T05:29:28.898Z,3.15
2023-03-29T05:32:08.441Z,2.92
2023-03-29T05:34:37.009Z,2.65
2023-03-29T05:37:06.101Z,3.80
2023-03-29T05:39:44.340Z,2.80
2023-03-29T05:42:15.458Z,2.80
2023-03-29T05:45:10.543Z,2.65
2023-03-29T05:47:38.491Z,2.58
2023-03-29T05:50:10.248Z,3.17
2023-03-29T05:52:41.122Z,2.40
2023-03-29T05:55:10.293Z,2.95
2023-03-29T05:57:38.673Z,2.90
2023-03-29T06:00:17.679Z,3.00
2023-03-29T06:02:45.696Z,2.60
2023-03-29T06:05:13.877Z,3.00
2023-03-29T06:07:58.074Z,3.15
2023-03-29T06:10:45.435Z,3.28
2023-03-29T06:13:37.192Z,2.90
2023-03-29T06:16:05.701Z,3.22
2023-03-29T06:18:33.538Z,2.90
2023-03-29T06:21:03.439Z,2.63
2023-03-29T06:23:33.359Z,2.92
2023-03-29T06:26:01.503Z,2.88
2023-03-29T06:28:29.780Z,3.22
2023-03-29T06:33:34.345Z,2.63
2023-03-29T06:36:16.231Z,3.20
2023-03-29T06:38:47.137Z,3.00
2023-03-29T06:41:24.790Z,2.65
2023-03-29T06:44:07.426Z,2.90
2023-03-29T06:46:39.739Z,2.65
2023-03-29T06:49:08.921Z,3.47
2023-03-29T06:52:08.911Z,2.65
2023-03-29T06:54:38.836Z,2.80
2023-03-29T06:57:07.981Z,3.70
2023-03-29T06:59:35.769Z,3.40
2023-03-29T07:02:25.297Z,3.22
2023-03-29T07:04:59.125Z,3.50
2023-03-29T07:07:43.973Z,3.28
2023-03-29T07:10:32.101Z,3.08
2023-03-29T07:13:33.058Z,2.90
2023-03-29T07:16:03.944Z,3.65
2023-03-29T07:18:39.965Z,2.97
2023-03-29T07:21:09.182Z,3.63
2023-03-29T07:23:37.471Z,3.63
2023-03-29T07:26:08.485Z,3.25
2023-03-29T07:28:37.816Z,3.47
2023-03-29T07:31:07.162Z,3.50
2023-03-29T07:33:40.839Z,3.13
2023-03-29T07:36:10.430Z,3.38
2023-03-29T07:38:38.769Z,2.80
2023-03-29T07:41:16.741Z,3.00
2023-03-29T07:44:09.107Z,2.97
2023-03-29T07:46:37.343Z,3.00
2023-03-29T07:49:05.561Z,2.83
2023-03-29T07:51:34.186Z,3.00
2023-03-29T07:54:07.785Z,3.22
2023-03-29T07:56:50.983Z,2.97
2023-03-29T07:59:39.554Z,2.70
2023-03-29T08:02:22.217Z,2.88
2023-03-29T08:04:54.251Z,2.90
2023-03-29T08:07:44.122Z,2.95
2023-03-29T08:10:19.543Z,2.92
2023-03-29T08:13:09.670Z,2.65
2023-03-29T08:15:50.182Z,3.20
2023-03-29T08:18:38.492Z,3.72
2023-03-29T08:21:06.633Z,3.33
2023-03-29T08:23:34.361Z,3.85
2023-03-29T08:26:11.416Z,3.53
2023-03-29T08:28:41.533Z,3.63
2023-03-29T08:31:11.027Z,3.67
2023-03-29T08:33:42.821Z,3.03
2023-03-29T08:36:40.219Z,3.00
2023-03-29T08:39:19.617Z,3.20
2023-03-29T08:42:06.903Z,2.92
2023-03-29T08:44:50.008Z,2.80
2023-03-29T08:47:26.310Z,4.00
2023-03-29T08:49:57.939Z,2.90
2023-03-29T08:52:37.874Z,3.08
2023-03-29T08:55:29.858Z,2.80
2023-03-29T08:58:19.462Z,3.22
2023-03-29T09:00:52.910Z,3.40
2023-03-29T09:03:23.439Z,3.22
2023-03-29T09:05:59.364Z,3.00
2023-03-29T09:08:27.654Z,2.97
2023-03-29T09:11:11.950Z,3.15
2023-03-29T09:13:49.181Z,4.63
2023-03-29T09:19:02.989Z,3.63
2023-03-29T09:21:36.553Z,3.60
2023-03-29T09:24:21.750Z,3.50
2023-03-29T09:27:12.121Z,3.58
2023-03-29T09:29:56.675Z,3.58
2023-03-29T09:32:48.197Z,3.20
2023-03-29T09:35:22.364Z,3.10
2023-03-29T09:37:53.410Z,3.60
2023-03-29T09:40:25.360Z,3.58
2023-03-29T09:43:05.467Z,3.40
2023-03-29T09:45:33.500Z,3.35
2023-03-29T09:48:11.202Z,3.28
2023-03-29T09:50:43.023Z,3.60
2023-03-29T09:53:12.359Z,3.25
2023-03-29T09:55:48.993Z,3.45
2023-03-29T09:58:32.959Z,4.00
2023-03-29T10:01:03.163Z,3.30
2023-03-29T10:03:34.885Z,3.53
2023-03-29T10:06:14.891Z,3.25
2023-03-29T10:08:57.577Z,3.30
2023-03-29T10:11:31.991Z,3.30
2023-03-29T10:14:03.998Z,3.42
2023-03-29T10:16:37.209Z,3.60
2023-03-29T10:19:19.565Z,3.90
2023-03-29T10:21:49.889Z,3.80
2023-03-29T10:24:20.717Z,3.25
2023-03-29T10:26:51.787Z,3.90
2023-03-29T10:29:19.631Z,4.03
2023-03-29T10:31:47.990Z,3.70
2023-03-29T10:34:18.570Z,3.90
2023-03-29T10:36:52.156Z,3.50
2023-03-29T10:39:20.473Z,3.40
2023-03-29T10:41:53.158Z,4.15
2023-03-29T10:44:32.798Z,3.72
2023-03-29T10:47:09.838Z,3.70
2023-03-29T10:49:47.079Z,3.58
2023-03-29T10:52:17.219Z,3.63
2023-03-29T10:54:45.582Z,3.70
2023-03-29T10:57:17.015Z,3.97
2023-03-29T10:59:53.708Z,4.50
2023-03-29T11:03:01.452Z,4.40
2023-03-29T11:05:36.785Z,4.13
2023-03-29T11:08:29.021Z,4.82
2023-03-29T11:11:08.769Z,4.82
2023-03-29T11:13:45.719Z,4.50
2023-03-29T11:16:28.148Z,4.97
2023-03-29T11:19:27.138Z,4.60
2023-03-29T11:22:06.646Z,5.03
2023-03-29T11:24:48.059Z,5.18
2023-03-29T11:27:27.349Z,4.47
2023-03-29T11:30:07.714Z,5.50
2023-03-29T11:32:47.033Z,5.30
2023-03-29T11:35:31.639Z,5.13
2023-03-29T11:38:09.165Z,5.70
2023-03-29T11:40:47.825Z,4.88
2023-03-29T11:43:20.514Z,5.38
2023-03-29T11:45:54.913Z,4.97
2023-03-29T11:48:26.779Z,5.50
2023-03-29T11:50:59.906Z,5.30
2023-03-29T11:53:36.365Z,6.05
2023-03-29T11:56:13.176Z,5.72
2023-03-29T11:58:45.792Z,6.20
2023-03-29T12:01:19.858Z,5.53
2023-03-29T12:03:52.365Z,5.45
2023-03-29T12:06:24.741Z,6.18
2023-03-29T12:08:57.289Z,6.25
2023-03-29T12:11:30.557Z,4.97
2023-03-29T12:14:04.629Z,5.65
2023-03-29T12:16:37.077Z,6.07
2023-03-29T12:19:11.633Z,5.32
2023-03-29T12:21:42.390Z,5.57
2023-03-29T12:24:14.414Z,5.07
2023-03-29T12:26:58.367Z,5.70
2023-03-29T12:29:52.353Z,5.00
2023-03-29T12:32:36.857Z,4.85
2023-03-29T12:35:34.410Z,5.15
2023-03-29T12:38:23.232Z,5.53
2023-03-29T12:41:19.090Z,6.30
2023-03-29T12:44:07.770Z,5.30
2023-03-29T12:46:42.120Z,6.07
2023-03-29T12:49:14.365Z,5.90
2023-03-29T12:51:43.892Z,5.80
2023-03-29T12:54:16.907Z,6.30
2023-03-29T12:56:58.622Z,5.78
2023-03-29T12:59:36.832Z,6.70
2023-03-29T13:02:34.737Z,5.70
2023-03-29T13:05:04.829Z,6.03
2023-03-29T13:07:45.651Z,6.47
2023-03-29T13:10:36.605Z,7.03
2023-03-29T13:13:19.911Z,7.15
2023-03-29T13:15:48.712Z,6.45
2023-03-29T13:18:41.442Z,6.97
2023-03-29T13:21:18.696Z,6.18
2023-03-29T13:23:57.009Z,6.43
2023-03-29T13:26:44.363Z,6.10
2023-03-29T13:29:49.291Z,7.20
2023-03-29T13:32:32.723Z,5.88
2023-03-29T13:35:08.176Z,5.90
2023-03-29T13:37:48.720Z,5.40
2023-03-29T13:40:34.376Z,6.20
2023-03-29T13:43:09.862Z,5.80
2023-03-29T13:45:40.455Z,5.25
2023-03-29T13:48:23.332Z,5.68
2023-03-29T13:50:56.391Z,5.53
2023-03-29T13:53:30.568Z,6.28
2023-03-29T13:55:59.841Z,5.65
2023-03-29T13:58:36.411Z,5.97
2023-03-29T14:01:14.356Z,4.85
2023-03-29T14:03:45.816Z,5.50
2023-03-29T14:06:16.789Z,4.93
2023-03-29T14:08:45.719Z,6.07
2023-03-29T14:11:22.977Z,5.32
2023-03-29T14:13:54.031Z,4.80
2023-03-29T14:16:23.574Z,5.07
2023-03-29T14:18:52.802Z,5.05
2023-03-29T14:21:21.633Z,5.07
2023-03-29T14:23:56.226Z,5.78
2023-03-29T14:26:25.967Z,4.88
2023-03-29T14:28:56.452Z,5.35
2023-03-29T14:31:30.410Z,4.95
2023-03-29T14:33:59.955Z,5.28
2023-03-29T14:36:29.212Z,6.18
2023-03-29T14:39:02.115Z,5.30
2023-03-29T14:41:31.625Z,6.03
2023-03-29T14:44:00.243Z,5.15
2023-03-29T14:46:30.118Z,5.90
2023-03-29T14:48:58.406Z,5.50
2023-03-29T14:51:30.216Z,5.30
2023-03-29T14:53:59.358Z,5.78
2023-03-29T14:56:28.133Z,6.18
2023-03-29T14:58:57.923Z,6.07
2023-03-29T15:01:27.821Z,6.00
2023-03-29T15:04:02.507Z,5.75
2023-03-29T15:06:31.552Z,6.65
2023-03-29T15:09:05.954Z,5.97
2023-03-29T15:11:35.114Z,5.32
2023-03-29T15:14:05.753Z,6.20
2023-03-29T15:16:34.349Z,5.72
2023-03-29T15:19:04.391Z,5.47
2023-03-29T15:21:35.400Z,5.50
2023-03-29T15:24:04.727Z,5.80
2023-03-29T15:26:34.185Z,5.50
2023-03-29T15:29:08.022Z,5.20
2023-03-29T15:31:37.306Z,5.07
2023-03-29T15:34:09.270Z,5.13
2023-03-29T15:36:42.296Z,5.63
2023-03-29T15:39:13.089Z,5.65
2023-03-29T15:41:41.385Z,5.65
2023-03-29T15:44:09.334Z,4.97
2023-03-29T15:46:37.366Z,5.57
2023-03-29T15:49:07.298Z,5.40
2023-03-29T15:51:35.140Z,5.70
2023-03-29T15:54:02.954Z,5.75
2023-03-29T15:56:32.928Z,5.47
2023-03-29T15:59:01.666Z,5.57
2023-03-29T16:01:35.491Z,5.50
2023-03-29T16:04:04.343Z,5.40
2023-03-29T16:06:34.466Z,4.72
2023-03-29T16:09:02.223Z,6.03
2023-03-29T16:11:30.055Z,5.03
2023-03-29T16:13:58.183Z,7.05
2023-03-29T16:16:27.048Z,5.97
2023-03-29T16:18:54.779Z,5.55
2023-03-29T16:21:24.298Z,5.18
2023-03-29T16:23:53.461Z,5.13
2023-03-29T16:26:21.774Z,4.50
2023-03-29T16:28:49.616Z,4.10
2023-03-29T16:31:17.364Z,4.32
2023-03-29T16:33:45.161Z,4.28
2023-03-29T16:36:13.092Z,4.20
2023-03-29T16:38:40.910Z,4.75
2023-03-29T16:41:14.846Z,5.07
2023-03-29T16:43:42.826Z,4.32
2023-03-29T16:46:11.299Z,5.30
2023-03-29T16:48:39.465Z,4.95
2023-03-29T16:51:07.985Z,4.28
2023-03-29T16:53:35.804Z,4.78
2023-03-29T16:56:04.606Z,5.18
2023-03-29T16:58:33.890Z,5.10
2023-03-29T17:01:09.620Z,5.13
2023-03-29T17:03:38.321Z,5.03
2023-03-29T17:06:07.500Z,6.00
2023-03-29T17:08:35.921Z,6.05
2023-03-29T17:11:04.794Z,4.55
2023-03-29T17:13:34.485Z,4.55
2023-03-29T17:16:02.483Z,4.82
2023-03-29T17:18:30.837Z,4.00
2023-03-29T17:20:59.852Z,4.55
2023-03-29T17:23:27.628Z,4.07
2023-03-29T17:25:56.512Z,4.30
2023-03-29T17:28:24.919Z,4.55
2023-03-29T17:30:54.034Z,4.85
2023-03-29T17:33:26.075Z,4.65
2023-03-29T17:35:54.045Z,4.97
2023-03-29T17:38:21.816Z,4.38
2023-03-29T17:40:53.238Z,4.30
2023-03-29T17:43:21.272Z,3.90
2023-03-29T17:45:51.900Z,4.35
2023-03-29T17:48:21.566Z,4.28
2023-03-29T17:50:49.309Z,4.13
2023-03-29T17:53:17.223Z,3.80
2023-03-29T17:55:45.048Z,4.38
2023-03-29T17:58:12.839Z,4.30
2023-03-29T18:00:40.674Z,4.30
2023-03-29T18:03:08.492Z,4.30
2023-03-29T18:05:38.057Z,4.13
2023-03-29T18:08:05.826Z,4.10
2023-03-29T18:10:33.603Z,4.32
2023-03-29T18:13:01.582Z,4.70
2023-03-29T18:15:29.387Z,4.70
2023-03-29T18:17:57.217Z,3.80
2023-03-29T18:20:24.999Z,4.65
2023-03-29T18:22:54.094Z,4.85
2023-03-29T18:25:22.084Z,4.97
2023-03-29T18:27:50.039Z,4.55
2023-03-29T18:30:17.928Z,4.15
2023-03-29T18:32:46.067Z,4.13
2023-03-29T18:35:13.816Z,4.13
2023-03-29T18:37:41.564Z,4.10
2023-03-29T18:40:11.140Z,4.30
2023-03-29T18:42:38.886Z,4.70
2023-03-29T18:45:07.546Z,4.57
2023-03-29T18:47:35.533Z,4.68
2023-03-29T18:50:03.430Z,4.20
2023-03-29T18:52:31.188Z,3.67
2023-03-29T18:54:58.918Z,4.03
2023-03-29T18:57:28.056Z,3.53
2023-03-29T18:59:55.817Z,3.88
2023-03-29T19:02:23.631Z,3.78
2023-03-29T19:04:51.621Z,3.67
2023-03-29T19:07:20.568Z,4.35
2023-03-29T19:09:48.329Z,3.92
2023-03-29T19:12:16.033Z,4.13
2023-03-29T19:14:45.096Z,3.58
2023-03-29T19:17:12.985Z,3.53
2023-03-29T19:19:40.700Z,3.55
2023-03-29T19:22:08.470Z,4.03
2023-03-29T19:24:36.204Z,3.65
2023-03-29T19:27:04.132Z,3.65
2023-03-29T19:29:31.831Z,3.63
2023-03-29T19:32:01.008Z,3.85
2023-03-29T19:34:29.692Z,3.60
2023-03-29T19:36:58.444Z,4.13
2023-03-29T19:39:27.813Z,4.00
2023-03-29T19:41:55.691Z,3.75
2023-03-29T19:44:24.440Z,3.10
2023-03-29T19:46:52.634Z,3.80
2023-03-29T19:49:21.792Z,4.32
2023-03-29T19:51:49.504Z,4.00
2023-03-29T19:54:17.431Z,3.97
2023-03-29T19:56:45.425Z,3.30
2023-03-29T19:59:14.899Z,3.88
2023-03-29T20:01:51.188Z,3.33
2023-03-29T20:04:22.596Z,3.42
2023-03-29T20:06:50.550Z,3.10
2023-03-29T20:09:18.585Z,3.17
2023-03-29T20:11:46.755Z,3.13
2023-03-29T20:14:15.076Z,3.72
2023-03-29T20:16:44.010Z,3.45
2023-03-29T20:19:14.059Z,3.40
2023-03-29T20:21:43.852Z,3.42
2023-03-29T20:24:12.570Z,3.15
2023-03-29T20:26:40.306Z,3.15
2023-03-29T20:29:08.125Z,3.40
2023-03-29T20:31:36.043Z,2.83
2023-03-29T20:34:03.914Z,3.35
2023-03-29T20:36:32.007Z,2.83
2023-03-29T20:39:01.281Z,3.10
2023-03-29T20:41:29.041Z,3.00
2023-03-29T20:43:59.376Z,3.35
2023-03-29T20:46:33.259Z,3.10
2023-03-29T20:49:01.488Z,3.10
2023-03-29T20:51:31.782Z,2.67
2023-03-29T20:54:04.353Z,2.90
2023-03-29T20:56:34.340Z,2.55
2023-03-29T20:59:03.891Z,3.90
2023-03-29T21:01:31.734Z,3.22
2023-03-29T21:03:59.784Z,3.00
2023-03-29T21:06:27.868Z,3.60
2023-03-29T21:08:55.695Z,3.40
2023-03-29T21:11:24.841Z,3.50
2023-03-29T21:13:53.845Z,4.07
2023-03-29T21:16:21.699Z,3.30
2023-03-29T21:18:49.509Z,3.70
2023-03-29T21:21:17.394Z,2.80
2023-03-29T21:23:45.181Z,3.08
2023-03-29T21:26:13.199Z,2.90
2023-03-29T21:28:42.443Z,2.88
2023-03-29T21:31:10.835Z,3.13
2023-03-29T21:33:38.726Z,2.83
2023-03-29T21:36:08.201Z,2.58
2023-03-29T21:38:36.134Z,2.95
2023-03-29T21:41:04.138Z,2.17
2023-03-29T21:43:32.045Z,3.10
2023-03-29T21:46:01.283Z,3.38
2023-03-29T21:48:29.080Z,3.70
2023-03-29T21:50:56.891Z,2.95
2023-03-29T21:53:25.000Z,3.20
2023-03-29T21:55:53.636Z,3.47
2023-03-29T21:58:21.731Z,3.40
2023-03-29T22:00:49.924Z,3.20
2023-03-29T22:03:19.228Z,3.65
2023-03-29T22:05:57.123Z,3.15
2023-03-29T22:08:26.434Z,3.10
2023-03-29T22:10:56.759Z,2.72
2023-03-29T22:13:26.126Z,2.67
2023-03-29T22:15:58.612Z,3.08
2023-03-29T22:18:29.996Z,3.15
2023-03-29T22:20:58.098Z,2.70
2023-03-29T22:23:25.888Z,3.00
2023-03-29T22:25:53.643Z,3.00
2023-03-29T22:28:21.577Z,2.85
2023-03-29T22:30:49.494Z,2.63
2023-03-29T22:33:17.307Z,2.55
2023-03-29T22:35:46.562Z,2.50
2023-03-29T22:38:14.404Z,2.40
2023-03-29T22:40:42.296Z,2.75
2023-03-29T22:43:10.183Z,3.55
2023-03-29T22:45:38.029Z,3.00
2023-03-29T22:48:06.246Z,3.40
2023-03-29T22:50:34.113Z,3.33
2023-03-29T22:53:03.158Z,3.22
2023-03-29T22:55:31.015Z,3.55
2023-03-29T22:57:58.711Z,3.38
2023-03-29T23:00:26.438Z,2.75
2023-03-29T23:02:54.288Z,2.90
2023-03-29T23:05:22.094Z,2.60
2023-03-29T23:07:49.859Z,3.40
2023-03-29T23:10:19.211Z,3.42
2023-03-29T23:12:48.993Z,2.80
2023-03-29T23:15:17.121Z,2.90
2023-03-29T23:17:45.425Z,2.78
2023-03-29T23:20:13.821Z,3.10
2023-03-29T23:22:41.562Z,3.22
2023-03-29T23:25:10.018Z,2.38
2023-03-29T23:27:39.057Z,2.63
2023-03-29T23:30:09.561Z,2.70
2023-03-29T23:32:37.550Z,2.70
2023-03-29T23:35:06.077Z,2.65
2023-03-29T23:37:33.902Z,2.50
2023-03-29T23:40:01.654Z,2.70
2023-03-29T23:42:30.828Z,2.50
2023-03-29T23:45:00.105Z,2.33
2023-03-29T23:47:27.883Z,2.45
2023-03-29T23:49:55.888Z,2.53
2023-03-29T23:52:23.599Z,2.15
2023-03-29T23:54:51.319Z,2.30
2023-03-29T23:57:19.348Z,2.60
2023-03-29T23:59:47.148Z,2.35
